Главная страница
METAR-TAF:

METAR-TAF

Аэропорты :

Air_Force_Base

Платтсбург, Нью-Йорк, США

широта: 44-39N, долгота: 073-28W, высота над уровнем моря: 72 м

Текущие метеонаблюдения

Эта сводка был подготовлена 1 час и 4 минут назад, в 08:53 UTC
Штиль
Температура 14°C
Влажность 82%
Давление 1018 hPa
Видимость: 16.1 км
ясное небо

METAR: KPBG 060853Z AUTO 00000KT 10SM CLR 14/11 A3006 RMK AO2 SLP180 T01390111 51010

Время: 05:57 (09:57 UTC)

Прогноз

Эта сводка был подготовлена 4 часа и 37 минут назад, в 05:20 UTC
Прогноз действительный с 06-го 06 UTC до 07-го 06 UTC
Ветер 3 Узел переменных направлений
Видимость: 10 км
ясное небо
С 06-го 1200 UTC
Ветер 8 Узел от юго-западный
Видимость: 10 км
ясное небо
С 06-го 1700 UTC
Ветер 3 Узел переменных направлений
Видимость: 10 км
ясное небо

TAF: KPBG 060520Z 0606/0706 VRB03KT P6SM SKC FM061200 23008KT P6SM SKC FM061700 VRB03KT P6SM SKC

Метеонаблюдения и прогнозы для более 4000 аэропортов (сводки METAR и TAF).

Имеющиеся станции представлены на карте желтыми и красными точками.

Чтобы увидеть название станции, наведите на нее мышь.

Затем щелкните, чтобы увидеть метеонаблюдения и метеопрогнозы.

Управление картой: чтобы увеличить масштаб, щелкните зеленые кнопки с черным крестиком; чтобы уменьшить масштаб, щелкните зеленую кнопку с тире; для просмотра соседних карт щелкайте зеленые стрелки.


METAR-TAF: